Observation data for Snyder on 01/17/2021      Previous  Date  Next       Current Mesonet Observations  Soil Data  Daily Summary Page  Observations in Plain Language
KSYS 170600Z 34005KT 03/M05 A3009 RMK A01 T00291051  RH  056%=      5-min Rain = 0
KSYS 170605Z 34004KT 03/M05 A3009 RMK A01 T00301052  RH  055%=      5-min Rain = 0
KSYS 170610Z 33004KT 03/M05 A3009 RMK A01 T00341053  RH  053%=      5-min Rain = 0
KSYS 170615Z 34004KT 03/M05 A3009 RMK A01 T00331052  RH  054%=      5-min Rain = 0
KSYS 170620Z 34004KT 03/M05 A3009 RMK A01 T00271052  RH  056%=      5-min Rain = 0
KSYS 170625Z 33004KT 02/M05 A3009 RMK A01 T00241052  RH  057%=      5-min Rain = 0
KSYS 170630Z 33004KT 02/M05 A3009 RMK A01 T00221052  RH  058%=      5-min Rain = 0
KSYS 170635Z 33004KT 02/M05 A3009 RMK A01 T00231052  RH  058%=      5-min Rain = 0
KSYS 170640Z 32005KT 03/M05 A3009 RMK A01 T00271050  RH  057%=      5-min Rain = 0
KSYS 170645Z 33005KT 03/M05 A3009 RMK A01 T00291051  RH  056%=      5-min Rain = 0
KSYS 170650Z 33005KT 03/M05 A3009 RMK A01 T00271051  RH  056%=      5-min Rain = 0
KSYS 170655Z 33005KT 03/M05 A3009 RMK A01 T00291052  RH  056%=      5-min Rain = 0
KSYS 170700Z 33004KT 03/M05 A3009 RMK A01 T00301052  RH  055%=      5-min Rain = 0
KSYS 170705Z 33004KT 03/M05 A3009 RMK A01 T00321051  RH  055%=      5-min Rain = 0
KSYS 170710Z 33004KT 03/M05 A3009 RMK A01 T00321050  RH  055%=      5-min Rain = 0
KSYS 170715Z 33005KT 03/M05 A3009 RMK A01 T00331051  RH  054%=      5-min Rain = 0
KSYS 170720Z 32005KT 03/M05 A3009 RMK A01 T00341050  RH  054%=      5-min Rain = 0
KSYS 170725Z 31004KT 04/M05 A3009 RMK A01 T00361050  RH  054%=      5-min Rain = 0
KSYS 170730Z 31004KT 04/M05 A3009 RMK A01 T00381050  RH  053%=      5-min Rain = 0
KSYS 170735Z 31004KT 04/M05 A3009 RMK A01 T00391048  RH  053%=      5-min Rain = 0
KSYS 170740Z 31003KT 04/M05 A3009 RMK A01 T00371048  RH  054%=      5-min Rain = 0
KSYS 170745Z 30003KT 03/M05 A3009 RMK A01 T00341048  RH  055%=      5-min Rain = 0
KSYS 170750Z 30003KT 03/M05 A3009 RMK A01 T00311049  RH  056%=      5-min Rain = 0
KSYS 170755Z 31004KT 03/M05 A3009 RMK A01 T00291048  RH  057%=      5-min Rain = 0
KSYS 170800Z 31003KT 03/M05 A3009 RMK A01 T00341047  RH  056%=      5-min Rain = 0
KSYS 170805Z 31002KT 04/M05 A3009 RMK A01 T00351047  RH  055%=      5-min Rain = 0
KSYS 170810Z 32004KT 03/M05 A3009 RMK A01 T00341047  RH  055%=      5-min Rain = 0
KSYS 170815Z 33004KT 04/M05 A3009 RMK A01 T00361047  RH  055%=      5-min Rain = 0
KSYS 170820Z 33004KT 04/M05 A301 RMK A01 T00361047  RH  055%=      5-min Rain = 0
KSYS 170825Z 33004KT 03/M05 A3009 RMK A01 T00321047  RH  056%=      5-min Rain = 0
KSYS 170830Z 33004KT 03/M05 A3009 RMK A01 T00281047  RH  058%=      5-min Rain = 0
KSYS 170835Z 33004KT 03/M05 A3009 RMK A01 T00281046  RH  058%=      5-min Rain = 0
KSYS 170840Z 33004KT 03/M05 A301 RMK A01 T00291048  RH  057%=      5-min Rain = 0
KSYS 170845Z 33005KT 03/M05 A301 RMK A01 T00271047  RH  058%=      5-min Rain = 0
KSYS 170850Z 34004KT 03/M05 A3009 RMK A01 T00291049  RH  057%=      5-min Rain = 0
KSYS 170855Z 34004KT 03/M05 A3009 RMK A01 T00341052  RH  053%=      5-min Rain = 0
KSYS 170900Z 34004KT 04/M06 A301 RMK A01 T00381055  RH  051%=      5-min Rain = 0
KSYS 170905Z 34003KT 04/M06 A301 RMK A01 T00391055  RH  050%=      5-min Rain = 0
KSYS 170910Z 35005KT 04/M06 A301 RMK A01 T00381057  RH  050%=      5-min Rain = 0
KSYS 170915Z 35005KT 04/M06 A301 RMK A01 T00371059  RH  049%=      5-min Rain = 0
KSYS 170920Z 00007KT 04/M06 A3009 RMK A01 T00381058  RH  050%=      5-min Rain = 0
KSYS 170925Z 01007KT 03/M06 A3009 RMK A01 T00321055  RH  053%=      5-min Rain = 0
KSYS 170930Z 00009KT 03/M05 A3009 RMK A01 T00291053  RH  055%=      5-min Rain = 0
KSYS 170935Z 00010KT 03/M05 A3009 RMK A01 T00281053  RH  055%=      5-min Rain = 0
KSYS 170940Z 01011KT 03/M05 A3009 RMK A01 T00271053  RH  056%=      5-min Rain = 0
KSYS 170945Z 00011KT 03/M05 A301 RMK A01 T00271053  RH  056%=      5-min Rain = 0
KSYS 170950Z 00011KT 03/M06 A301 RMK A01 T00261055  RH  055%=      5-min Rain = 0
KSYS 170955Z 01011KT 03/M06 A301 RMK A01 T00251055  RH  056%=      5-min Rain = 0
KSYS 171000Z 00011KT 02/M06 A301 RMK A01 T00241055  RH  056%=      5-min Rain = 0
KSYS 171005Z 00011KT 02/M06 A301 RMK A01 T00221055  RH  057%=      5-min Rain = 0
KSYS 171010Z 00009KT 02/M06 A301 RMK A01 T00221055  RH  057%=      5-min Rain = 0
KSYS 171015Z 35007KT 02/M06 A301 RMK A01 T00191055  RH  058%=      5-min Rain = 0
KSYS 171020Z 35007KT 02/M06 A301 RMK A01 T00171057  RH  058%=      5-min Rain = 0
KSYS 171025Z 35006KT 02/M06 A301 RMK A01 T00201057  RH  057%=      5-min Rain = 0
KSYS 171030Z 36007KT 02/M06 A301 RMK A01 T00171057  RH  058%=      5-min Rain = 0
KSYS 171035Z 36006KT 01/M06 A301 RMK A01 T00131056  RH  060%=      5-min Rain = 0
KSYS 171040Z 36007KT 01/M06 A301 RMK A01 T00111057  RH  061%=      5-min Rain = 0
KSYS 171045Z 35006KT 01/M06 A301 RMK A01 T00111058  RH  060%=      5-min Rain = 0
KSYS 171050Z 34006KT 01/M06 A301 RMK A01 T00091058  RH  061%=      5-min Rain = 0
KSYS 171055Z 35006KT 01/M06 A301 RMK A01 T00111059  RH  060%=      5-min Rain = 0
KSYS 171100Z 36006KT 01/M06 A301 RMK A01 T00111060  RH  059%=      5-min Rain = 0
KSYS 171105Z 36007KT 01/M06 A301 RMK A01 T00131060  RH  059%=      5-min Rain = 0
KSYS 171110Z 36007KT 01/M06 A301 RMK A01 T00141060  RH  058%=      5-min Rain = 0
KSYS 171115Z 36008KT 02/M06 A301 RMK A01 T00171061  RH  056%=      5-min Rain = 0
KSYS 171120Z 36007KT 02/M06 A301 RMK A01 T00191062  RH  055%=      5-min Rain = 0
KSYS 171125Z 36007KT 02/M06 A301 RMK A01 T00221064  RH  053%=      5-min Rain = 0
KSYS 171130Z 35007KT 03/M07 A3011 RMK A01 T00271066  RH  050%=      5-min Rain = 0
KSYS 171135Z 35005KT 03/M07 A3011 RMK A01 T00301068  RH  049%=      5-min Rain = 0
KSYS 171140Z 35004KT 03/M07 A3011 RMK A01 T00291068  RH  049%=      5-min Rain = 0
KSYS 171145Z 35004KT 03/M07 A3011 RMK A01 T00281069  RH  049%=      5-min Rain = 0
KSYS 171150Z 34004KT 03/M07 A3011 RMK A01 T00281070  RH  049%=      5-min Rain = 0
KSYS 171155Z 35004KT 03/M07 A3011 RMK A01 T00281070  RH  049%=      5-min Rain = 0
KSYS 171200Z 35004KT 03/M07 A301 RMK A01 T00281071  RH  048%=      5-min Rain = 0
KSYS 171205Z 35004KT 03/M07 A3011 RMK A01 T00281072  RH  048%=      5-min Rain = 0
KSYS 171210Z 36005KT 03/M07 A3011 RMK A01 T00281073  RH  047%=      5-min Rain = 0
KSYS 171215Z 02012KT 04/M07 A3011 RMK A01 T00361070  RH  046%=      5-min Rain = 0
KSYS 171220Z 02011KT 04/M06 A3011 RMK A01 T00381063  RH  048%=      5-min Rain = 0
KSYS 171225Z 02011KT 04/M06 A3011 RMK A01 T00351059  RH  050%=      5-min Rain = 0
KSYS 171230Z 02012KT 03/M06 A3012 RMK A01 T00311057  RH  053%=      5-min Rain = 0
KSYS 171235Z 02011KT 03/M06 A3012 RMK A01 T00301056  RH  054%=      5-min Rain = 0
KSYS 171240Z 01011KT 03/M06 A3012 RMK A01 T00281055  RH  055%=      5-min Rain = 0
KSYS 171245Z 02011KT 03/M05 A3012 RMK A01 T00271054  RH  055%=      5-min Rain = 0
KSYS 171250Z 02011KT 03/M05 A3013 RMK A01 T00261054  RH  056%=      5-min Rain = 0
KSYS 171255Z 02011KT 03/M05 A3013 RMK A01 T00251052  RH  057%=      5-min Rain = 0
KSYS 171300Z 02011KT 02/M05 A3013 RMK A01 T00231051  RH  058%=      5-min Rain = 0
KSYS 171305Z 02011KT 02/M05 A3014 RMK A01 T00211051  RH  059%=      5-min Rain = 0
KSYS 171310Z 01011KT 02/M05 A3014 RMK A01 T00191051  RH  060%=      5-min Rain = 0
KSYS 171315Z 02011KT 02/M05 A3014 RMK A01 T00181052  RH  060%=      5-min Rain = 0
KSYS 171320Z 02012KT 02/M05 A3014 RMK A01 T00191052  RH  060%=      5-min Rain = 0
KSYS 171325Z 02011KT 02/M05 A3014 RMK A01 T00201051  RH  059%=      5-min Rain = 0
KSYS 171330Z 02011KT 02/M05 A3014 RMK A01 T00201050  RH  060%=      5-min Rain = 0
KSYS 171335Z 02011KT 02/M05 A3015 RMK A01 T00191049  RH  061%=      5-min Rain = 0
KSYS 171340Z 02011KT 02/M05 A3015 RMK A01 T00181049  RH  061%=      5-min Rain = 0
KSYS 171345Z 02011KT 02/M05 A3015 RMK A01 T00171049  RH  062%=      5-min Rain = 0
KSYS 171350Z 02011KT 02/M05 A3015 RMK A01 T00171048  RH  062%=      5-min Rain = 0
KSYS 171355Z 02012KT 02/M05 A3015 RMK A01 T00181047  RH  062%=      5-min Rain = 0
KSYS 171400Z 03011KT 02/M05 A3015 RMK A01 T00181047  RH  062%=      5-min Rain = 0
KSYS 171405Z 03012KT 02/M05 A3015 RMK A01 T00181046  RH  063%=      5-min Rain = 0
KSYS 171410Z 03011KT 02/M04 A3015 RMK A01 T00211044  RH  063%=      5-min Rain = 0
KSYS 171415Z 03011KT 02/M04 A3015 RMK A01 T00231042  RH  062%=      5-min Rain = 0
KSYS 171420Z 03011KT 02/M04 A3014 RMK A01 T00241041  RH  062%=      5-min Rain = 0
KSYS 171425Z 03010KT 03/M04 A3014 RMK A01 T00261039  RH  062%=      5-min Rain = 0
KSYS 171430Z 03011KT 03/M04 A3015 RMK A01 T00271038  RH  063%=      5-min Rain = 0
KSYS 171435Z 02010KT 03/M04 A3015 RMK A01 T00271037  RH  063%=      5-min Rain = 0
KSYS 171440Z 02011KT 03/M04 A3016 RMK A01 T00271036  RH  063%=      5-min Rain = 0
KSYS 171445Z 02010KT 03/M04 A3016 RMK A01 T00291035  RH  063%=      5-min Rain = 0
KSYS 171450Z 02009KT 03/M03 A3016 RMK A01 T00301034  RH  063%=      5-min Rain = 0
KSYS 171455Z 02008KT 03/M03 A3017 RMK A01 T00311033  RH  063%=      5-min Rain = 0
KSYS 171500Z 02009KT 03/M03 A3017 RMK A01 T00331032  RH  063%=      5-min Rain = 0
KSYS 171505Z 02008KT 04/M03 A3017 RMK A01 T00351032  RH  062%=      5-min Rain = 0
KSYS 171510Z 02008KT 04/M03 A3017 RMK A01 T00361032  RH  061%=      5-min Rain = 0
KSYS 171515Z 02008KT 04/M03 A3017 RMK A01 T00371030  RH  062%=      5-min Rain = 0
KSYS 171520Z 02008KT 04/M03 A3017 RMK A01 T00391029  RH  061%=      5-min Rain = 0
KSYS 171525Z 01007KT 04/M03 A3017 RMK A01 T00411029  RH  061%=      5-min Rain = 0
KSYS 171530Z 01007KT 04/M03 A3017 RMK A01 T00431028  RH  060%=      5-min Rain = 0
KSYS 171535Z 02007KT 05/M03 A3018 RMK A01 T00461028  RH  059%=      5-min Rain = 0
KSYS 171540Z 01006KT 05/M03 A3018 RMK A01 T00481028  RH  058%=      5-min Rain = 0
KSYS 171545Z 02007KT 05/M03 A3018 RMK A01 T00501028  RH  057%=      5-min Rain = 0
KSYS 171550Z 02006KT 05/M03 A3019 RMK A01 T00521027  RH  057%=      5-min Rain = 0
KSYS 171555Z 02006KT 06/M03 A3019 RMK A01 T00561027  RH  056%=      5-min Rain = 0
KSYS 171605Z 02007KT 06/M03 A3019 RMK A01 T00611030  RH  052%=      5-min Rain = 0
KSYS 171610Z 03008KT 07/M03 A3019 RMK A01 T00651032  RH  050%=      5-min Rain = 0
KSYS 171615Z 02009KT 07/M03 A3019 RMK A01 T00681032  RH  049%=      5-min Rain = 0
KSYS 171620Z 03008KT 07/M03 A3019 RMK A01 T00711033  RH  048%=      5-min Rain = 0
KSYS 171625Z 04008KT 08/M03 A3019 RMK A01 T00751032  RH  047%=      5-min Rain = 0
KSYS 171630Z 04007KT 08/M03 A3019 RMK A01 T00771033  RH  046%=      5-min Rain = 0
KSYS 171635Z 05008KT 08/M04 A3018 RMK A01 T00841038  RH  042%=      5-min Rain = 0
KSYS 171640Z 06010KT 09/M04 A3018 RMK A01 T00861039  RH  041%=      5-min Rain = 0
KSYS 171645Z 06009KT 09/M04 A3018 RMK A01 T00881039  RH  041%=      5-min Rain = 0
KSYS 171650Z 05011KT 09/M04 A3018 RMK A01 T00911040  RH  040%=      5-min Rain = 0
KSYS 171655Z 06009KT 09/M04 A3019 RMK A01 T00911039  RH  040%=      5-min Rain = 0
KSYS 171700Z 05011G17KT 09/M04 A3019 RMK A01 T00931040  RH  039%=      5-min Rain = 0
KSYS 171705Z 05011G16KT 09/M04 A3019 RMK A01 T00931039  RH  039%=      5-min Rain = 0
KSYS 171710Z 05011G17KT 10/M04 A3019 RMK A01 T00951040  RH  039%=      5-min Rain = 0
KSYS 171715Z 04011G16KT 10/M04 A3018 RMK A01 T00961038  RH  039%=      5-min Rain = 0
KSYS 171720Z 05012G17KT 10/M04 A3018 RMK A01 T00961040  RH  038%=      5-min Rain = 0
KSYS 171725Z 05012G17KT 10/M04 A3018 RMK A01 T00961040  RH  038%=      5-min Rain = 0
KSYS 171730Z 05012G18KT 10/M04 A3018 RMK A01 T00961040  RH  038%=      5-min Rain = 0
KSYS 171735Z 05011G16KT 10/M04 A3018 RMK A01 T00991040  RH  037%=      5-min Rain = 0
KSYS 171740Z 06012G17KT 10/M04 A3018 RMK A01 T00991042  RH  037%=      5-min Rain = 0
KSYS 171745Z 06010G16KT 10/M04 A3018 RMK A01 T01021039  RH  037%=      5-min Rain = 0
KSYS 171750Z 06010KT 10/M04 A3018 RMK A01 T01031038  RH  037%=      5-min Rain = 0
KSYS 171755Z 06010G16KT 11/M04 A3018 RMK A01 T01061037  RH  036%=      5-min Rain = 0
KSYS 171800Z 06010G15KT 10/M04 A3018 RMK A01 T01041039  RH  037%=      5-min Rain = 0
KSYS 171805Z 07011G16KT 11/M04 A3018 RMK A01 T01051038  RH  037%=      5-min Rain = 0
KSYS 171810Z 06010G15KT 11/M04 A3017 RMK A01 T01051038  RH  036%=      5-min Rain = 0
KSYS 171815Z 06009G15KT 11/M04 A3017 RMK A01 T01061036  RH  037%=      5-min Rain = 0
KSYS 171820Z 07008KT 11/M04 A3017 RMK A01 T01071038  RH  036%=      5-min Rain = 0
KSYS 171825Z 08009KT 11/M04 A3017 RMK A01 T01111037  RH  035%=      5-min Rain = 0
KSYS 171830Z 07009G15KT 11/M04 A3016 RMK A01 T01131037  RH  035%=      5-min Rain = 0
KSYS 171835Z 08010KT 11/M04 A3016 RMK A01 T01101038  RH  035%=      5-min Rain = 0
KSYS 171840Z 08010KT 11/M04 A3015 RMK A01 T01091038  RH  036%=      5-min Rain = 0
KSYS 171845Z 07008KT 11/M04 A3016 RMK A01 T01111036  RH  036%=      5-min Rain = 0
KSYS 171850Z 07009KT 11/M04 A3015 RMK A01 T01131035  RH  035%=      5-min Rain = 0
KSYS 171855Z 06008KT 11/M03 A3015 RMK A01 T01101033  RH  037%=      5-min Rain = 0
KSYS 171900Z 07007KT 11/M03 A3015 RMK A01 T01131027  RH  038%=      5-min Rain = 0
KSYS 171905Z 07008KT 11/M03 A3015 RMK A01 T01141033  RH  036%=      5-min Rain = 0
KSYS 171910Z 07007KT 11/M03 A3014 RMK A01 T01141033  RH  036%=      5-min Rain = 0
KSYS 171915Z 06009KT 12/M04 A3014 RMK A01 T01151035  RH  035%=      5-min Rain = 0
KSYS 171920Z 07007KT 11/M04 A3014 RMK A01 T01131038  RH  035%=      5-min Rain = 0
KSYS 171925Z 06006KT 12/M04 A3013 RMK A01 T01151035  RH  035%=      5-min Rain = 0
KSYS 171930Z 08006KT 12/M04 A3013 RMK A01 T01151036  RH  035%=      5-min Rain = 0
KSYS 171935Z 07006KT 12/M03 A3013 RMK A01 T01171034  RH  035%=      5-min Rain = 0
KSYS 171940Z 09005KT 12/M04 A3012 RMK A01 T01181037  RH  034%=      5-min Rain = 0
KSYS 171945Z 10006KT 12/M04 A3012 RMK A01 T01201037  RH  033%=      5-min Rain = 0
KSYS 171950Z 10006KT 12/M04 A3012 RMK A01 T01221035  RH  033%=      5-min Rain = 0
KSYS 171955Z 09005KT 12/M04 A3012 RMK A01 T01201035  RH  034%=      5-min Rain = 0
KSYS 172000Z 11007KT 12/M04 A3011 RMK A01 T01221036  RH  033%=      5-min Rain = 0
KSYS 172005Z 11005G10KT 12/M04 A3011 RMK A01 T01231036  RH  033%=      5-min Rain = 0
KSYS 172010Z 10007KT 12/M03 A3011 RMK A01 T01231034  RH  034%=      5-min Rain = 0
KSYS 172015Z 09004G9KT 12/M03 A3011 RMK A01 T01231034  RH  034%=      5-min Rain = 0
KSYS 172020Z 10005KT 12/M03 A301 RMK A01 T01241033  RH  033%=      5-min Rain = 0
KSYS 172025Z 11008KT 12/M03 A3009 RMK A01 T01241032  RH  034%=      5-min Rain = 0
KSYS 172030Z 11007KT 12/M03 A3009 RMK A01 T01241032  RH  034%=      5-min Rain = 0
KSYS 172035Z 11005KT 13/M03 A3009 RMK A01 T01271030  RH  034%=      5-min Rain = 0
KSYS 172040Z 11007KT 13/M03 A3009 RMK A01 T01291029  RH  033%=      5-min Rain = 0
KSYS 172045Z 10006G11KT 13/M03 A301 RMK A01 T01301032  RH  033%=      5-min Rain = 0
KSYS 172050Z 08006G13KT 13/M03 A301 RMK A01 T01251032  RH  034%=      5-min Rain = 0
KSYS 172055Z 07004KT 12/M03 A301 RMK A01 T01221030  RH  035%=      5-min Rain = 0
KSYS 172100Z 10007KT 12/M03 A301 RMK A01 T01241031  RH  034%=      5-min Rain = 0
KSYS 172105Z 11006KT 13/M03 A301 RMK A01 T01261034  RH  033%=      5-min Rain = 0
KSYS 172110Z 10004KT 12/M04 A301 RMK A01 T01241035  RH  033%=      5-min Rain = 0
KSYS 172115Z 10004KT 12/M04 A301 RMK A01 T01231037  RH  033%=      5-min Rain = 0
KSYS 172120Z 09004G9KT 13/M03 A301 RMK A01 T01251034  RH  033%=      5-min Rain = 0
KSYS 172125Z 08004KT 13/M04 A301 RMK A01 T01271035  RH  032%=      5-min Rain = 0
KSYS 172130Z 11005KT 12/M04 A301 RMK A01 T01241035  RH  033%=      5-min Rain = 0
KSYS 172135Z 08006KT 12/M04 A301 RMK A01 T01241035  RH  033%=      5-min Rain = 0
KSYS 172140Z 08006KT 12/M04 A301 RMK A01 T01211037  RH  033%=      5-min Rain = 0
KSYS 172145Z 08004KT 12/M04 A301 RMK A01 T01201037  RH  033%=      5-min Rain = 0
KSYS 172150Z 05005KT 12/M04 A301 RMK A01 T01221035  RH  034%=      5-min Rain = 0
KSYS 172155Z 07006KT 12/M03 A301 RMK A01 T01231034  RH  033%=      5-min Rain = 0
KSYS 172200Z 10005KT 12/M04 A301 RMK A01 T01241035  RH  033%=      5-min Rain = 0
KSYS 172205Z 07006KT 12/M04 A301 RMK A01 T01231036  RH  033%=      5-min Rain = 0
KSYS 172210Z 07004KT 12/M04 A301 RMK A01 T01211038  RH  033%=      5-min Rain = 0
KSYS 172215Z 05005KT 12/M04 A301 RMK A01 T01201037  RH  033%=      5-min Rain = 0
KSYS 172220Z 07005KT 12/M04 A301 RMK A01 T01191036  RH  034%=      5-min Rain = 0
KSYS 172225Z 06005KT 12/M03 A301 RMK A01 T01211034  RH  034%=      5-min Rain = 0
KSYS 172230Z 05007KT 12/M04 A301 RMK A01 T01181037  RH  034%=      5-min Rain = 0
KSYS 172235Z 06005KT 12/M04 A301 RMK A01 T01161037  RH  034%=      5-min Rain = 0
KSYS 172240Z 08005KT 12/M04 A301 RMK A01 T01171036  RH  034%=      5-min Rain = 0
KSYS 172245Z 08006KT 12/M04 A301 RMK A01 T01181035  RH  034%=      5-min Rain = 0
KSYS 172250Z 10006KT 12/M04 A301 RMK A01 T01171035  RH  034%=      5-min Rain = 0
KSYS 172255Z 09005KT 12/M04 A301 RMK A01 T01151037  RH  034%=      5-min Rain = 0
KSYS 172300Z 09005KT 11/M04 A301 RMK A01 T01121036  RH  035%=      5-min Rain = 0
KSYS 172305Z 09006KT 11/M04 A301 RMK A01 T01111036  RH  036%=      5-min Rain = 0
KSYS 172310Z 10006KT 11/M04 A301 RMK A01 T01101036  RH  036%=      5-min Rain = 0
KSYS 172315Z 09005KT 11/M04 A301 RMK A01 T01091037  RH  036%=      5-min Rain = 0
KSYS 172320Z 11005KT 11/M04 A3009 RMK A01 T01091035  RH  036%=      5-min Rain = 0
KSYS 172325Z 10005KT 11/M04 A3009 RMK A01 T01071036  RH  037%=      5-min Rain = 0
KSYS 172330Z 09005KT 11/M04 A3009 RMK A01 T01051036  RH  037%=      5-min Rain = 0
KSYS 172335Z 08006KT 10/M04 A3009 RMK A01 T01021035  RH  038%=      5-min Rain = 0
KSYS 172340Z 08005KT 10/M04 A3009 RMK A01 T00981035  RH  039%=      5-min Rain = 0
KSYS 172345Z 09005KT 10/M04 A3009 RMK A01 T00951035  RH  040%=      5-min Rain = 0
KSYS 172350Z 09005KT 09/M04 A3009 RMK A01 T00911035  RH  041%=      5-min Rain = 0
KSYS 172355Z 08005KT 09/M04 A3009 RMK A01 T00881036  RH  042%=      5-min Rain = 0
KSYS 180000Z 07005KT 09/M04 A3009 RMK A01 T00851037  RH  042%=      5-min Rain = 0
KSYS 180005Z 08005KT 08/M04 A3009 RMK A01 T00831037  RH  043%=      5-min Rain = 0
KSYS 180010Z 07005KT 08/M04 A3009 RMK A01 T00811038  RH  043%=      5-min Rain = 0
KSYS 180015Z 07006KT 08/M04 A3009 RMK A01 T00811038  RH  043%=      5-min Rain = 0
KSYS 180020Z 06006KT 08/M04 A3009 RMK A01 T00801038  RH  043%=      5-min Rain = 0
KSYS 180025Z 07006KT 08/M04 A3009 RMK A01 T00781038  RH  044%=      5-min Rain = 0
KSYS 180030Z 07006KT 08/M04 A3009 RMK A01 T00771038  RH  044%=      5-min Rain = 0
KSYS 180035Z 08006KT 08/M04 A3009 RMK A01 T00761039  RH  044%=      5-min Rain = 0
KSYS 180040Z 07006KT 07/M04 A3009 RMK A01 T00741039  RH  045%=      5-min Rain = 0
KSYS 180045Z 08006KT 07/M04 A301 RMK A01 T00741039  RH  045%=      5-min Rain = 0
KSYS 180050Z 08006KT 07/M04 A301 RMK A01 T00731039  RH  045%=      5-min Rain = 0
KSYS 180055Z 08005KT 07/M04 A301 RMK A01 T00721040  RH  045%=      5-min Rain = 0
KSYS 180100Z 08006KT 07/M04 A301 RMK A01 T00721040  RH  045%=      5-min Rain = 0
KSYS 180105Z 08006KT 07/M04 A301 RMK A01 T00711040  RH  045%=      5-min Rain = 0
KSYS 180110Z 08006KT 07/M04 A301 RMK A01 T00721040  RH  045%=      5-min Rain = 0
KSYS 180115Z 08006KT 07/M04 A301 RMK A01 T00721040  RH  045%=      5-min Rain = 0
KSYS 180120Z 07006KT 07/M04 A301 RMK A01 T00711041  RH  045%=      5-min Rain = 0
KSYS 180125Z 07006KT 07/M04 A301 RMK A01 T00711041  RH  045%=      5-min Rain = 0
KSYS 180130Z 08006KT 07/M04 A301 RMK A01 T00701042  RH  045%=      5-min Rain = 0
KSYS 180135Z 08007KT 07/M04 A301 RMK A01 T00691042  RH  045%=      5-min Rain = 0
KSYS 180140Z 08007KT 07/M04 A301 RMK A01 T00671042  RH  046%=      5-min Rain = 0
KSYS 180145Z 08007KT 07/M04 A301 RMK A01 T00651042  RH  046%=      5-min Rain = 0
KSYS 180150Z 09006KT 06/M04 A301 RMK A01 T00631043  RH  047%=      5-min Rain = 0
KSYS 180155Z 09006KT 06/M04 A301 RMK A01 T00621043  RH  047%=      5-min Rain = 0
KSYS 180200Z 09006KT 06/M04 A301 RMK A01 T00621043  RH  047%=      5-min Rain = 0
KSYS 180205Z 08006KT 06/M04 A301 RMK A01 T00621043  RH  047%=      5-min Rain = 0
KSYS 180210Z 08006KT 06/M04 A301 RMK A01 T00631043  RH  047%=      5-min Rain = 0
KSYS 180215Z 08006KT 06/M04 A301 RMK A01 T00631043  RH  047%=      5-min Rain = 0
KSYS 180220Z 08006KT 06/M04 A301 RMK A01 T00631043  RH  047%=      5-min Rain = 0
KSYS 180225Z 09006KT 06/M04 A301 RMK A01 T00631043  RH  047%=      5-min Rain = 0
KSYS 180230Z 09006KT 06/M04 A3009 RMK A01 T00621042  RH  047%=      5-min Rain = 0
KSYS 180235Z 09007KT 06/M04 A3009 RMK A01 T00611043  RH  048%=      5-min Rain = 0
KSYS 180240Z 10007KT 06/M04 A3009 RMK A01 T00591043  RH  048%=      5-min Rain = 0
KSYS 180245Z 10006KT 06/M04 A3008 RMK A01 T00561043  RH  049%=      5-min Rain = 0
KSYS 180250Z 11006KT 05/M04 A3008 RMK A01 T00521043  RH  051%=      5-min Rain = 0
KSYS 180255Z 11006KT 05/M04 A3008 RMK A01 T00481043  RH  052%=      5-min Rain = 0
KSYS 180300Z 11006KT 04/M04 A3007 RMK A01 T00441043  RH  053%=      5-min Rain = 0
KSYS 180305Z 11005KT 04/M04 A3007 RMK A01 T00421043  RH  054%=      5-min Rain = 0
KSYS 180310Z 11006KT 04/M04 A3007 RMK A01 T00411042  RH  055%=      5-min Rain = 0
KSYS 180315Z 11006KT 04/M04 A3007 RMK A01 T00401042  RH  055%=      5-min Rain = 0
KSYS 180320Z 11006KT 04/M04 A3007 RMK A01 T00381042  RH  056%=      5-min Rain = 0
KSYS 180325Z 11007KT 04/M04 A3007 RMK A01 T00371042  RH  057%=      5-min Rain = 0
KSYS 180330Z 11007KT 04/M04 A3007 RMK A01 T00361041  RH  057%=      5-min Rain = 0
KSYS 180335Z 11008KT 04/M04 A3007 RMK A01 T00351041  RH  058%=      5-min Rain = 0
KSYS 180340Z 11007KT 04/M04 A3006 RMK A01 T00361041  RH  057%=      5-min Rain = 0
KSYS 180345Z 11007KT 04/M04 A3006 RMK A01 T00361041  RH  057%=      5-min Rain = 0
KSYS 180350Z 11007KT 04/M04 A3006 RMK A01 T00361041  RH  057%=      5-min Rain = 0
KSYS 180355Z 10007KT 04/M04 A3006 RMK A01 T00361041  RH  057%=      5-min Rain = 0
KSYS 180400Z 10008KT 04/M04 A3006 RMK A01 T00371041  RH  057%=      5-min Rain = 0
KSYS 180405Z 10008KT 04/M04 A3006 RMK A01 T00371041  RH  057%=      5-min Rain = 0
KSYS 180410Z 11008KT 04/M04 A3005 RMK A01 T00371042  RH  057%=      5-min Rain = 0
KSYS 180415Z 11008KT 04/M04 A3005 RMK A01 T00351042  RH  057%=      5-min Rain = 0
KSYS 180420Z 11008KT 03/M04 A3005 RMK A01 T00341041  RH  058%=      5-min Rain = 0
KSYS 180425Z 12008KT 03/M04 A3005 RMK A01 T00331041  RH  058%=      5-min Rain = 0
KSYS 180430Z 12008KT 03/M04 A3005 RMK A01 T00311041  RH  059%=      5-min Rain = 0
KSYS 180435Z 12008KT 03/M04 A3005 RMK A01 T00301041  RH  060%=      5-min Rain = 0
KSYS 180440Z 12008KT 03/M04 A3005 RMK A01 T00291041  RH  060%=      5-min Rain = 0
KSYS 180445Z 12009KT 03/M04 A3004 RMK A01 T00291041  RH  060%=      5-min Rain = 0
KSYS 180450Z 12008KT 03/M04 A3004 RMK A01 T00281041  RH  061%=      5-min Rain = 0
KSYS 180455Z 12008KT 03/M04 A3004 RMK A01 T00261041  RH  062%=      5-min Rain = 0
KSYS 180500Z 12008KT 03/M04 A3004 RMK A01 T00251040  RH  062%=      5-min Rain = 0
KSYS 180505Z 12008KT 02/M04 A3004 RMK A01 T00241041  RH  063%=      5-min Rain = 0
KSYS 180510Z 13007KT 02/M04 A3004 RMK A01 T00241041  RH  063%=      5-min Rain = 0
KSYS 180515Z 13007KT 02/M04 A3004 RMK A01 T00231041  RH  063%=      5-min Rain = 0
KSYS 180520Z 13008KT 02/M04 A3003 RMK A01 T00231041  RH  063%=      5-min Rain = 0
KSYS 180525Z 14008KT 02/M04 A3003 RMK A01 T00241040  RH  063%=      5-min Rain = 0
KSYS 180535Z 14007KT 02/M04 A3003 RMK A01 T00231041  RH  063%=      5-min Rain = 0
KSYS 180540Z 14007KT 02/M04 A3002 RMK A01 T00211041  RH  064%=      5-min Rain = 0
KSYS 180545Z 15007KT 02/M04 A3002 RMK A01 T00211041  RH  064%=      5-min Rain = 0
KSYS 180550Z 15008KT 02/M04 A3002 RMK A01 T00231041  RH  063%=      5-min Rain = 0
KSYS 180555Z 14008KT 02/M04 A3002 RMK A01 T00231041  RH  063%=      5-min Rain = 0

Page generated in 0.045 seconds.